Pagrindinis puslapis
METAR-TAF:

METAR-TAF

Oro uostai :

Jacareacanga, Para, Brazilija

platuma: 06-16S, ilguma: 057-44W, Aukštis: 98 m

Dabartinis oras

Ataskaita buvo paskelbta 28 minutes, ne 19:00 UTC
Vėjas 5 kt iš Rytų/Pietryčių
Temperatūra 31°C
Drėgmė 71%
Slėgis 1008 hPa
Matomumas 10 km arba daugiau
Mažai debesys ne aukštis 2500 ft, aukštai iškilę kamuoliniai debesys.
Su prošvaistėmis ne aukštis 9000 ft

METAR: SBEK 051900Z 11005KT 9999 FEW025TCU BKN090 31/25 Q1008

Laikas: 16:28 (19:28 UTC)


TAF: trūkstamas

Orai ataskaitas ir orų prognozės (METAR, TAF).

turimą stotys yra geltonos ir raudonos taškus žemėlapyje.

Perkelti pele per norėdami pamatyti stoties vardą.

Tada spustelėkite, norėdami matyti oro stebėjimo ir prognozės.

Norėdami pakeisti žemėlapį: spustelėkite ant žalios mygtukų su juodo kryžiaus žemyn,; žalią mygtuką su brūkšneliu, jei norite nutolinti; arba žalių rodyklių gretimoms žemėlapius.


METAR-TAF: